Academy, New Jersey
Current Conditions -  °F | °C
As of 2:51 AM on Friday 24 Oct 2014 (Local Time) from KEWR Reporting Station
Overcast Overcast  
Wind Chill: 11°   Ceiling: 4000
Heat Index: 11°   Visibility: 10mi
Dew Point:   Wind: 9mph
Humidity: 71%   Direction: 310°NW
Pressure: 29.79"   Gusts: NA
Location:  40.7334°N, 74.1735°W
Report Text: KEWR 240651Z 31008KT 10SM BKN040 BKN065 OVC090 11/06 A2979 RMK AO2 SLP086 T01110061 $
Loading
Personal Weather Stations






























Interactive Weather Map
Tropical Storm Tracking
New forecast layout! Learn more

10-Day Weather Forecast

Advertisements
Track Severe Weather on mobile